Everettville, West Virginia
Current Conditions -  °F | °C
As of 10:44 AM on Saturday 20 Dec 2014 (Local Time) from KMGW Reporting Station
Broken Clouds Broken Clouds  
Wind Chill: 31°   Ceiling: 2400
Heat Index: 31°   Visibility: 10mi
Dew Point: 18°   Wind: 3mph
Humidity: 59%   Direction: 10°N
Pressure: 30.26"   Gusts: NA
Location:  39.56°N, 80.06°W
Report Text: KMGW 201544Z 01003KT 10SM BKN024 M01/M08 A3026 RMK AO2 T10061078
Loading
Personal Weather Stations






























Interactive Weather Map New forecast layout! Learn more

10-Day Weather Forecast

Advertisements
Track Severe Weather on mobile